createdAt,value
2022-10-15T00:01:17.464Z,47.13
2022-10-15T00:04:03.095Z,45.85
2022-10-15T00:06:48.554Z,44.15
2022-10-15T00:09:33.833Z,44.97
2022-10-15T00:12:19.552Z,45.10
2022-10-15T00:15:05.572Z,46.30
2022-10-15T00:17:51.141Z,44.75
2022-10-15T00:20:36.880Z,45.35
2022-10-15T00:23:22.140Z,45.40
2022-10-15T00:26:17.501Z,45.75
2022-10-15T00:29:04.435Z,44.30
2022-10-15T00:31:49.589Z,47.17
2022-10-15T00:34:35.016Z,44.20
2022-10-15T00:37:21.372Z,44.42
2022-10-15T00:40:08.470Z,47.10
2022-10-15T00:42:53.928Z,45.13
2022-10-15T00:45:39.392Z,45.10
2022-10-15T00:48:30.244Z,45.38
2022-10-15T00:51:17.947Z,46.30
2022-10-15T00:54:03.593Z,44.30
2022-10-15T00:56:50.436Z,45.72
2022-10-15T00:59:47.343Z,47.70
2022-10-15T01:02:33.640Z,47.28
2022-10-15T01:05:19.639Z,47.88
2022-10-15T01:08:05.233Z,48.70
2022-10-15T01:11:14.860Z,47.03
2022-10-15T01:14:47.734Z,48.55
2022-10-15T01:17:45.052Z,50.35
2022-10-15T01:20:53.063Z,49.35
2022-10-15T01:24:16.156Z,49.72
2022-10-15T01:27:32.585Z,50.03
2022-10-15T01:30:36.132Z,50.05
2022-10-15T01:33:30.959Z,50.97
2022-10-15T01:36:35.711Z,50.38
2022-10-15T01:39:32.760Z,50.40
2022-10-15T01:42:30.530Z,49.80
2022-10-15T01:45:25.268Z,49.60
2022-10-15T01:48:41.993Z,51.72
2022-10-15T01:51:29.948Z,53.95
2022-10-15T01:54:18.107Z,54.33
2022-10-15T01:57:04.445Z,54.63
2022-10-15T01:59:54.209Z,53.78
2022-10-15T02:02:42.486Z,54.60
2022-10-15T02:05:40.862Z,54.85
2022-10-15T02:08:45.641Z,54.47
2022-10-15T02:11:40.244Z,53.67
2022-10-15T02:14:44.397Z,52.90
2022-10-15T02:17:44.039Z,56.30
2022-10-15T02:20:59.604Z,53.05
2022-10-15T02:23:53.446Z,56.30
2022-10-15T02:26:43.714Z,57.15
2022-10-15T02:29:33.885Z,57.42
2022-10-15T02:32:25.096Z,59.35
2022-10-15T02:35:11.783Z,58.88
2022-10-15T02:38:05.119Z,59.67
2022-10-15T02:40:54.086Z,60.83
2022-10-15T02:43:40.943Z,62.58
2022-10-15T02:46:26.625Z,62.65
2022-10-15T02:49:14.455Z,61.67
2022-10-15T02:51:59.736Z,66.38
2022-10-15T02:54:45.522Z,65.88
2022-10-15T02:57:30.955Z,67.30
2022-10-15T03:00:18.425Z,67.57
2022-10-15T03:03:04.710Z,68.88
2022-10-15T03:05:50.494Z,70.13
2022-10-15T03:08:36.278Z,71.60
2022-10-15T03:11:22.891Z,71.30
2022-10-15T03:14:08.950Z,73.63
2022-10-15T03:16:54.475Z,77.15
2022-10-15T03:19:39.951Z,76.93
2022-10-15T03:22:28.100Z,79.22
2022-10-15T03:25:13.868Z,82.60
2022-10-15T03:27:59.439Z,81.80
2022-10-15T03:30:54.069Z,80.27
2022-10-15T03:33:39.812Z,82.82
2022-10-15T03:36:25.436Z,85.85
2022-10-15T03:39:12.942Z,85.15
2022-10-15T03:41:58.835Z,85.45
2022-10-15T03:44:50.972Z,89.57
2022-10-15T03:47:38.309Z,92.65
2022-10-15T03:50:24.098Z,90.80
2022-10-15T03:53:09.412Z,92.18
2022-10-15T03:55:55.253Z,94.38
2022-10-15T03:58:44.191Z,97.43
2022-10-15T04:01:33.032Z,97.10
2022-10-15T04:04:22.896Z,98.32
2022-10-15T04:07:08.368Z,97.47
2022-10-15T04:09:58.157Z,100.88
2022-10-15T04:12:48.118Z,102.18
2022-10-15T04:15:35.244Z,101.20
2022-10-15T04:18:26.578Z,100.57
2022-10-15T04:21:14.355Z,102.15
2022-10-15T04:24:04.231Z,101.65
2022-10-15T04:26:55.623Z,99.30
2022-10-15T04:29:41.127Z,98.15
2022-10-15T04:32:33.212Z,95.70
2022-10-15T04:35:19.099Z,91.80
2022-10-15T04:38:27.135Z,89.32
2022-10-15T04:41:22.484Z,89.00
2022-10-15T04:44:34.251Z,86.78
2022-10-15T04:47:20.347Z,84.28
2022-10-15T04:50:11.857Z,84.63
2022-10-15T04:53:36.027Z,83.00
2022-10-15T04:56:23.334Z,79.00
2022-10-15T04:59:08.674Z,79.75
2022-10-15T05:02:12.930Z,77.18
2022-10-15T05:04:58.624Z,74.38
2022-10-15T05:07:44.583Z,75.00
2022-10-15T05:10:30.638Z,74.47
2022-10-15T05:13:19.964Z,72.80
2022-10-15T05:16:09.490Z,70.47
2022-10-15T05:19:00.902Z,69.45
2022-10-15T05:24:41.822Z,68.90
2022-10-15T05:27:37.995Z,67.82
2022-10-15T05:30:24.019Z,68.32
2022-10-15T05:33:14.292Z,67.72
2022-10-15T05:36:09.387Z,67.38
2022-10-15T05:38:57.214Z,66.35
2022-10-15T05:41:42.675Z,64.05
2022-10-15T05:44:28.244Z,64.63
2022-10-15T05:47:13.817Z,64.20
2022-10-15T05:49:59.990Z,64.68
2022-10-15T05:52:50.508Z,63.45
2022-10-15T05:55:52.365Z,61.50
2022-10-15T05:58:38.203Z,58.85
2022-10-15T06:01:24.107Z,58.00
2022-10-15T06:04:12.298Z,58.10
2022-10-15T06:06:59.826Z,61.13
2022-10-15T06:09:45.351Z,56.47
2022-10-15T06:12:31.676Z,52.80
2022-10-15T06:15:18.557Z,48.95
2022-10-15T06:18:04.194Z,52.30
2022-10-15T06:20:53.721Z,49.78
2022-10-15T06:23:39.327Z,49.03
2022-10-15T06:26:24.764Z,50.13
2022-10-15T06:29:10.347Z,50.67
2022-10-15T06:31:56.018Z,49.88
2022-10-15T06:34:44.571Z,53.63
2022-10-15T06:37:29.976Z,55.50
2022-10-15T06:40:20.093Z,57.22
2022-10-15T06:43:11.549Z,64.03
2022-10-15T06:45:59.211Z,61.95
2022-10-15T06:48:44.921Z,64.97
2022-10-15T06:51:30.224Z,63.20
2022-10-15T06:54:16.130Z,58.33
2022-10-15T06:57:01.563Z,58.17
2022-10-15T06:59:47.017Z,56.08
2022-10-15T07:02:34.953Z,58.08
2022-10-15T07:05:20.541Z,59.55
2022-10-15T07:08:09.087Z,60.35
2022-10-15T07:13:58.066Z,67.00
2022-10-15T07:16:43.427Z,67.07
2022-10-15T07:19:28.996Z,73.25
2022-10-15T07:22:14.571Z,69.85
2022-10-15T07:24:59.930Z,73.32
2022-10-15T07:27:45.404Z,70.18
2022-10-15T07:30:31.588Z,72.70
2022-10-15T07:33:17.706Z,67.70
2022-10-15T07:36:12.959Z,64.70
2022-10-15T07:38:59.644Z,63.40
2022-10-15T07:41:46.224Z,60.78
2022-10-15T07:44:31.782Z,51.25
2022-10-15T07:47:18.432Z,44.63
2022-10-15T07:50:03.796Z,41.85
2022-10-15T07:52:49.459Z,39.53
2022-10-15T07:55:35.957Z,40.90
2022-10-15T07:58:21.342Z,37.55
2022-10-15T08:01:14.976Z,37.80
2022-10-15T08:04:03.228Z,36.80
2022-10-15T08:06:49.679Z,32.80
2022-10-15T08:09:35.274Z,32.88
2022-10-15T08:12:20.554Z,31.42
2022-10-15T08:15:06.716Z,30.63
2022-10-15T08:17:51.935Z,29.90
2022-10-15T08:20:38.605Z,29.35
2022-10-15T08:23:23.991Z,28.30
2022-10-15T08:26:09.232Z,27.80
2022-10-15T08:28:54.624Z,25.30
2022-10-15T08:31:40.905Z,24.42
2022-10-15T08:34:27.619Z,23.70
2022-10-15T08:39:58.893Z,22.85
2022-10-15T08:42:46.491Z,22.75
2022-10-15T08:45:38.843Z,22.73
2022-10-15T08:48:47.265Z,20.58
2022-10-15T08:51:45.050Z,19.73
2022-10-15T08:54:33.569Z,19.48
2022-10-15T08:57:54.040Z,19.05
2022-10-15T09:01:11.553Z,19.05
2022-10-15T09:04:30.888Z,18.65
2022-10-15T09:07:28.879Z,18.13
2022-10-15T09:10:46.124Z,20.05
2022-10-15T09:13:40.329Z,18.67
2022-10-15T09:16:35.542Z,19.55
2022-10-15T09:19:23.831Z,20.20
2022-10-15T09:22:14.970Z,20.70
2022-10-15T09:25:15.203Z,22.23
2022-10-15T09:28:09.227Z,21.83
2022-10-15T09:30:58.156Z,23.17
2022-10-15T09:33:50.523Z,22.65
2022-10-15T09:36:54.862Z,22.38
2022-10-15T09:39:46.171Z,23.80
2022-10-15T09:42:38.159Z,23.45
2022-10-15T09:45:24.477Z,20.92
2022-10-15T09:48:18.716Z,23.13
2022-10-15T09:51:14.256Z,21.45
2022-10-15T09:54:15.706Z,22.08
2022-10-15T09:57:00.816Z,21.35
2022-10-15T10:00:01.697Z,22.48
2022-10-15T10:03:07.131Z,21.58
2022-10-15T10:06:15.541Z,21.52
2022-10-15T10:09:05.220Z,21.83
2022-10-15T10:11:54.836Z,22.20
2022-10-15T10:14:54.510Z,21.58
2022-10-15T10:20:59.740Z,20.33
2022-10-15T10:23:54.777Z,21.67
2022-10-15T10:26:40.048Z,22.27
2022-10-15T10:29:33.859Z,18.52
2022-10-15T10:32:23.746Z,20.67
2022-10-15T10:35:22.982Z,20.60
2022-10-15T10:38:31.998Z,20.75
2022-10-15T10:41:17.362Z,18.70
2022-10-15T10:44:02.844Z,17.08
2022-10-15T10:47:03.228Z,16.80
2022-10-15T10:49:55.178Z,15.15
2022-10-15T10:52:40.996Z,15.25
2022-10-15T10:55:37.715Z,16.35
2022-10-15T10:58:27.029Z,15.57
2022-10-15T11:01:13.507Z,15.85
2022-10-15T11:03:58.969Z,16.63
2022-10-15T11:07:21.661Z,15.80
2022-10-15T11:10:13.773Z,15.07
2022-10-15T11:13:14.999Z,14.68
2022-10-15T11:16:27.323Z,16.13
2022-10-15T11:19:55.047Z,16.02
2022-10-15T11:22:57.508Z,15.65
2022-10-15T11:25:56.029Z,16.25
2022-10-15T11:28:50.263Z,17.40
2022-10-15T11:32:02.611Z,15.65
2022-10-15T11:35:28.655Z,14.93
2022-10-15T11:38:44.718Z,15.82
2022-10-15T11:42:12.471Z,14.88
2022-10-15T11:45:42.195Z,15.75
2022-10-15T11:49:11.775Z,15.63
2022-10-15T11:51:57.171Z,14.55
2022-10-15T11:54:45.861Z,12.95
2022-10-15T11:57:34.059Z,12.82
2022-10-15T12:00:35.958Z,12.85
2022-10-15T12:03:28.839Z,13.27
2022-10-15T12:06:18.830Z,14.30
2022-10-15T12:09:06.533Z,13.25
2022-10-15T12:12:14.731Z,13.10
2022-10-15T12:15:30.616Z,11.80
2022-10-15T12:18:47.672Z,11.40
2022-10-15T12:21:54.271Z,10.85
2022-10-15T12:24:40.712Z,11.68
2022-10-15T12:27:37.368Z,10.43
2022-10-15T12:30:25.516Z,10.18
2022-10-15T12:34:04.594Z,8.80
2022-10-15T12:37:09.226Z,7.25
2022-10-15T12:40:01.628Z,7.47
2022-10-15T12:42:51.872Z,6.65
2022-10-15T12:45:40.845Z,6.35
2022-10-15T12:48:41.294Z,6.78
2022-10-15T12:51:26.688Z,5.15
2022-10-15T12:54:34.957Z,5.18
2022-10-15T12:57:33.751Z,4.60
2022-10-15T13:00:39.750Z,4.45
2022-10-15T13:03:35.584Z,4.00
2022-10-15T13:06:20.809Z,4.35
2022-10-15T13:09:12.196Z,4.22
2022-10-15T13:12:00.488Z,3.60
2022-10-15T13:14:57.336Z,3.15
2022-10-15T13:17:43.431Z,3.42
2022-10-15T13:20:36.996Z,3.20
2022-10-15T13:23:31.991Z,3.05
2022-10-15T13:26:26.731Z,3.17
2022-10-15T13:29:19.972Z,2.57
2022-10-15T13:32:14.805Z,2.20
2022-10-15T13:35:02.177Z,2.42
2022-10-15T13:37:49.300Z,1.88
2022-10-15T13:40:35.033Z,1.85
2022-10-15T13:43:27.690Z,1.50
2022-10-15T13:46:15.928Z,1.52
2022-10-15T13:49:04.180Z,1.33
2022-10-15T13:51:51.517Z,0.68
2022-10-15T13:54:36.720Z,0.80
2022-10-15T13:57:22.216Z,0.52
2022-10-15T14:00:20.640Z,1.00
2022-10-15T14:03:15.723Z,0.95
2022-10-15T14:09:18.623Z,1.05
2022-10-15T14:12:08.364Z,1.35
2022-10-15T14:14:55.334Z,1.10
2022-10-15T14:17:40.769Z,1.05
2022-10-15T14:20:27.608Z,1.10
2022-10-15T14:23:21.189Z,1.30
2022-10-15T14:26:06.712Z,1.50
2022-10-15T14:28:52.659Z,1.02
2022-10-15T14:31:48.265Z,1.10
2022-10-15T14:34:33.670Z,1.20
2022-10-15T14:37:30.183Z,1.30
2022-10-15T14:40:18.995Z,1.20
2022-10-15T14:43:15.709Z,1.30
2022-10-15T14:46:03.414Z,1.38
2022-10-15T14:48:49.120Z,1.33
2022-10-15T14:51:34.651Z,1.23
2022-10-15T14:54:34.364Z,1.20
2022-10-15T14:57:25.260Z,1.50
2022-10-15T15:00:34.082Z,1.45
2022-10-15T15:03:26.016Z,1.27
2022-10-15T15:06:11.848Z,1.33
2022-10-15T15:08:57.141Z,1.55
2022-10-15T15:11:42.629Z,1.02
2022-10-15T15:14:28.081Z,1.05
2022-10-15T15:17:22.751Z,1.00
2022-10-15T15:20:08.605Z,1.17
2022-10-15T15:22:55.167Z,1.20
2022-10-15T15:25:40.875Z,1.15
2022-10-15T15:28:27.781Z,1.35
2022-10-15T15:31:18.259Z,1.27
2022-10-15T15:34:03.868Z,1.10
2022-10-15T15:36:49.846Z,1.52
2022-10-15T15:39:35.232Z,1.40
2022-10-15T15:42:23.548Z,1.20
2022-10-15T15:45:18.187Z,1.70
2022-10-15T15:48:04.776Z,2.03
2022-10-15T15:50:53.543Z,1.27
2022-10-15T15:53:38.911Z,1.30
2022-10-15T15:56:25.386Z,1.25
2022-10-15T15:59:10.836Z,2.22
2022-10-15T16:01:56.734Z,1.65
2022-10-15T16:04:42.046Z,1.67
2022-10-15T16:07:28.783Z,2.08
2022-10-15T16:10:14.188Z,2.28
2022-10-15T16:12:59.576Z,2.58
2022-10-15T16:15:48.361Z,2.50
2022-10-15T16:18:33.735Z,2.22
2022-10-15T16:21:23.687Z,1.70
2022-10-15T16:24:09.102Z,1.70
2022-10-15T16:26:54.889Z,1.70
2022-10-15T16:29:40.160Z,2.38
2022-10-15T16:32:25.764Z,2.00
2022-10-15T16:35:11.509Z,2.15
2022-10-15T16:37:56.630Z,2.65
2022-10-15T16:40:46.203Z,2.38
2022-10-15T16:43:31.762Z,2.25
2022-10-15T16:46:19.039Z,2.67
2022-10-15T16:49:04.638Z,2.97
2022-10-15T16:51:50.019Z,2.95
2022-10-15T16:54:35.583Z,3.03
2022-10-15T16:57:21.519Z,3.28
2022-10-15T17:00:07.707Z,4.28
2022-10-15T17:02:54.187Z,3.10
2022-10-15T17:05:39.448Z,3.70
2022-10-15T17:08:34.873Z,2.92
2022-10-15T17:11:29.898Z,3.70
2022-10-15T17:14:16.845Z,2.83
2022-10-15T17:17:02.351Z,3.17
2022-10-15T17:19:47.942Z,3.13
2022-10-15T17:22:35.016Z,3.20
2022-10-15T17:25:20.399Z,2.67
2022-10-15T17:28:06.191Z,3.38
2022-10-15T17:30:52.455Z,3.80
2022-10-15T17:33:39.679Z,4.07
2022-10-15T17:36:26.182Z,4.43
2022-10-15T17:39:13.352Z,3.78
2022-10-15T17:41:58.907Z,3.78
2022-10-15T17:44:44.478Z,3.70
2022-10-15T17:47:30.314Z,3.58
2022-10-15T17:50:16.343Z,4.30
2022-10-15T17:53:03.100Z,3.38
2022-10-15T17:55:48.151Z,3.55
2022-10-15T17:58:33.930Z,3.13
2022-10-15T18:01:33.861Z,3.17
2022-10-15T18:04:31.655Z,3.78
2022-10-15T18:07:19.963Z,3.78
2022-10-15T18:10:06.255Z,3.03
2022-10-15T18:12:52.095Z,3.33
2022-10-15T18:15:38.812Z,3.20
2022-10-15T18:18:26.044Z,2.72
2022-10-15T18:21:17.047Z,3.55
2022-10-15T18:24:02.537Z,3.20
2022-10-15T18:26:48.153Z,2.90
2022-10-15T18:29:33.991Z,3.35
2022-10-15T18:32:19.394Z,3.40
2022-10-15T18:35:06.287Z,2.90
2022-10-15T18:37:51.958Z,3.55
2022-10-15T18:40:41.093Z,3.58
2022-10-15T18:43:26.853Z,3.03
2022-10-15T18:46:12.294Z,3.25
2022-10-15T18:49:01.056Z,3.22
2022-10-15T18:51:52.817Z,2.53
2022-10-15T18:54:38.517Z,2.72
2022-10-15T18:57:24.048Z,2.40
2022-10-15T19:00:13.424Z,2.95
2022-10-15T19:02:59.011Z,4.03
2022-10-15T19:05:44.712Z,3.35
2022-10-15T19:08:31.276Z,3.85
2022-10-15T19:11:17.171Z,2.75
2022-10-15T19:14:03.322Z,2.70
2022-10-15T19:16:49.171Z,1.88
2022-10-15T19:19:34.727Z,2.42
2022-10-15T19:22:20.203Z,2.05
2022-10-15T19:25:06.625Z,1.60
2022-10-15T19:27:52.331Z,2.47
2022-10-15T19:30:40.768Z,1.98
2022-10-15T19:33:27.367Z,2.20
2022-10-15T19:36:23.455Z,2.10
2022-10-15T19:39:14.725Z,1.77
2022-10-15T19:42:00.275Z,1.88
2022-10-15T19:44:45.467Z,2.53
2022-10-15T19:47:36.923Z,2.20
2022-10-15T19:50:24.075Z,2.58
2022-10-15T19:53:16.469Z,2.15
2022-10-15T19:56:08.584Z,2.20
2022-10-15T19:58:55.968Z,2.55
2022-10-15T20:01:41.210Z,1.75
2022-10-15T20:04:26.489Z,2.35
2022-10-15T20:07:14.833Z,3.15
2022-10-15T20:10:00.913Z,2.65
2022-10-15T20:12:52.554Z,2.85
2022-10-15T20:15:49.596Z,2.35
2022-10-15T20:18:36.938Z,2.22
2022-10-15T20:21:22.592Z,2.08
2022-10-15T20:24:08.184Z,1.70
2022-10-15T20:26:53.712Z,2.17
2022-10-15T20:29:39.663Z,2.55
2022-10-15T20:32:35.106Z,2.03
2022-10-15T20:38:10.545Z,1.67
2022-10-15T20:40:55.874Z,2.35
2022-10-15T20:43:42.987Z,1.92
2022-10-15T20:46:32.769Z,2.10
2022-10-15T20:49:22.907Z,2.20
2022-10-15T20:52:08.501Z,2.38
2022-10-15T20:54:56.060Z,2.45
2022-10-15T20:57:41.640Z,2.10
2022-10-15T21:00:26.916Z,2.15
2022-10-15T21:03:12.603Z,2.45
2022-10-15T21:05:58.378Z,2.38
2022-10-15T21:08:43.737Z,1.98
2022-10-15T21:11:29.130Z,2.15
2022-10-15T21:14:21.299Z,2.58
2022-10-15T21:17:09.306Z,2.00
2022-10-15T21:19:54.543Z,1.98
2022-10-15T21:22:39.995Z,2.72
2022-10-15T21:25:25.751Z,2.25
2022-10-15T21:28:11.087Z,2.05
2022-10-15T21:30:56.376Z,2.22
2022-10-15T21:33:42.527Z,2.20
2022-10-15T21:36:28.359Z,2.60
2022-10-15T21:39:13.557Z,2.58
2022-10-15T21:41:59.191Z,2.00
2022-10-15T21:44:46.571Z,2.10
2022-10-15T21:47:32.980Z,1.98
2022-10-15T21:50:18.774Z,2.42
2022-10-15T21:53:05.009Z,1.73
2022-10-15T21:55:54.354Z,1.58
2022-10-15T21:58:41.166Z,2.20
2022-10-15T22:01:31.221Z,2.17
2022-10-15T22:04:17.431Z,2.17
2022-10-15T22:07:03.347Z,1.88
2022-10-15T22:09:48.770Z,1.92
2022-10-15T22:12:34.008Z,1.73
2022-10-15T22:15:19.519Z,1.73
2022-10-15T22:18:05.116Z,1.60
2022-10-15T22:20:50.804Z,1.70
2022-10-15T22:23:35.929Z,1.70
2022-10-15T22:26:24.704Z,1.65
2022-10-15T22:29:19.811Z,1.70
2022-10-15T22:32:05.574Z,1.38
2022-10-15T22:34:50.804Z,1.67
2022-10-15T22:37:36.308Z,1.63
2022-10-15T22:40:24.503Z,1.70
2022-10-15T22:43:09.943Z,1.30
2022-10-15T22:45:59.830Z,1.77
2022-10-15T22:48:45.299Z,1.67
2022-10-15T22:51:31.149Z,1.65
2022-10-15T22:54:41.402Z,2.42
2022-10-15T22:57:26.526Z,2.10
2022-10-15T23:00:12.663Z,1.77
2022-10-15T23:02:57.919Z,2.03
2022-10-15T23:05:43.676Z,1.67
2022-10-15T23:08:41.372Z,1.92
2022-10-15T23:11:40.671Z,2.45
2022-10-15T23:14:29.075Z,2.25
2022-10-15T23:17:14.615Z,2.28
2022-10-15T23:19:59.823Z,2.33
2022-10-15T23:22:45.328Z,2.08
2022-10-15T23:25:35.955Z,2.28
2022-10-15T23:28:21.549Z,2.17
2022-10-15T23:31:07.215Z,1.95
2022-10-15T23:33:54.005Z,1.95
2022-10-15T23:36:40.378Z,1.73
2022-10-15T23:39:27.102Z,2.75
2022-10-15T23:42:12.163Z,2.22
2022-10-15T23:44:58.868Z,1.77
2022-10-15T23:47:44.413Z,1.70
2022-10-15T23:50:36.593Z,2.28
2022-10-15T23:53:22.072Z,1.60
2022-10-15T23:56:07.569Z,2.25
2022-10-15T23:58:55.495Z,2.08
